Sunday, April 22, 2018, 5:46 PM EDT
Back to Local

KMTP, Montauk Airport

Location: Montauk, NY, United States Lat: 41.067
Local Time: 5:46 PM EDT (21:46 GMT) Lon: -71.917
Time Zone: US/Eastern Elev: 6 ft

Show me the last for .
Show Coded

Time T Td Feel RH Dir Speed Gust Alt SLP Vis Weather Sky Remarks
2018-04-22 16:54 55 31 - 39 220° 9 17 30.34 30.34 0 None
2018-04-22 15:54 55 29 - 36 210° 12 20 30.34 30.34 0 None
2018-04-22 14:54 56 30 - 36 210° 9 16 30.36 30.35 0 None
2018-04-22 13:54 57 27 - 31 200° 8 - 30.37 30.36 0 6-hr Min Temp (2pm): 46.9°F
6-hr Max Temp (2pm): 59.0°F
2018-04-22 12:54 58 18 - 20 260° 8 - 30.38 30.38 0 None
2018-04-22 11:54 56 20 - 24 Variable 6 - 30.39 30.39 0 None
2018-04-22 10:54 54 23 - 29 270° 6 - 30.40 30.40 0 None
2018-04-22 09:54 50 23 47 34 300° 8 - 30.40 30.40 0 None
2018-04-22 08:54 49 25 46 38 300° 7 - 30.40 30.39 0 None
2018-04-22 07:54 48 28 45 45 300° 6 - 30.39 30.39 0 6-hr Min Temp (8am): 34.0°F
6-hr Max Temp (8am): 48.0°F
2018-04-22 06:54 46 32 44 57 320° 5 - 30.37 30.37 0 None
2018-04-22 05:54 44 34 42 67 340° 5 - 30.36 30.35 0 None
2018-04-22 04:54 36 32 - 85 - Calm - 30.35 30.35 0 None
2018-04-22 03:54 38 30 - 72 - Calm - 30.35 30.34 0 None
2018-04-22 02:54 42 33 - 70 - Calm - 30.34 30.34 0 None
2018-04-22 01:54 46 35 44 65 270° 5 - 30.34 30.33 0 6-hr Min Temp (2am): 46.0°F
6-hr Max Temp (2am): 48.9°F
2018-04-22 00:54 46 37 44 70 270° 5 - 30.33 30.33 0 24-hr Min Temp (1am): 41.0°F
24-hr Max Temp (1am): 57.0°F
2018-04-21 23:54 47 36 44 65 270° 6 - 30.33 30.32 0 None
2018-04-21 22:54 47 36 46 65 270° 3 - 30.32 30.32 0 None
2018-04-21 21:54 48 34 44 58 250° 8 - 30.31 30.31 0 None
2018-04-21 20:54 47 36 44 65 240° 6 - 30.30 30.30 0 None
2018-04-21 19:54 49 34 45 56 240° 8 - 30.28 30.28 0 6-hr Min Temp (8pm): 48.9°F
6-hr Max Temp (8pm): 57.0°F
2018-04-21 18:54 53 33 - 46 230° 6 - 30.25 30.24 0 None
2018-04-21 17:54 55 33 - 43 230° 7 - 30.24 30.24 0 None

Support USWX by starting your Amazon purchase here.